createdAt,value
2019-02-10T00:03:49.259Z,47.94
2019-02-10T00:09:44.252Z,44.94
2019-02-10T00:15:39.287Z,43.96
2019-02-10T00:21:34.230Z,43.3
2019-02-10T00:27:29.278Z,46.8
2019-02-10T00:33:24.275Z,44.66
2019-02-10T00:39:19.255Z,43.9
2019-02-10T00:45:14.257Z,41.35
2019-02-10T00:51:09.235Z,42.94
2019-02-10T00:57:04.276Z,46.47
2019-02-10T01:02:59.255Z,43.3
2019-02-10T01:08:54.299Z,44.69
2019-02-10T01:14:49.246Z,45.6
2019-02-10T01:20:44.271Z,47.26
2019-02-10T01:26:39.250Z,47.66
2019-02-10T01:32:34.296Z,46.68
2019-02-10T01:38:29.317Z,41.43
2019-02-10T01:44:24.328Z,39.7
2019-02-10T01:50:19.300Z,38.4
2019-02-10T01:56:14.268Z,38.76
2019-02-10T02:02:09.290Z,41.17
2019-02-10T02:08:04.278Z,38.53
2019-02-10T02:13:59.271Z,39.25
2019-02-10T02:19:54.281Z,31.73
2019-02-10T02:25:49.383Z,32.16
2019-02-10T02:31:44.313Z,32.32
2019-02-10T02:37:39.274Z,39.25
2019-02-10T02:43:34.336Z,28.77
2019-02-10T02:49:29.286Z,28.82
2019-02-10T02:55:24.282Z,27.91
2019-02-10T03:01:19.293Z,25.66
2019-02-10T03:07:17.904Z,25.9
2019-02-10T03:13:09.297Z,25.73
2019-02-10T03:19:04.333Z,31.03
2019-02-10T03:24:59.315Z,31
2019-02-10T03:30:54.286Z,30.7
2019-02-10T03:36:49.279Z,32
2019-02-10T03:42:44.288Z,29.21
2019-02-10T03:48:39.272Z,27.77
2019-02-10T03:54:34.292Z,23.13
2019-02-10T04:00:29.316Z,21.64
2019-02-10T04:06:24.293Z,22.55
2019-02-10T04:12:19.334Z,20
2019-02-10T04:18:14.339Z,21.38
2019-02-10T04:24:09.339Z,19.9
2019-02-10T04:30:04.280Z,18.55
2019-02-10T04:35:59.325Z,19.85
2019-02-10T04:41:54.299Z,21.12
2019-02-10T04:47:49.335Z,20.07
2019-02-10T04:53:44.285Z,18.64
2019-02-10T04:59:39.282Z,18.09
2019-02-10T05:05:34.289Z,17.04
2019-02-10T05:11:29.325Z,16.03
2019-02-10T05:17:24.353Z,21.2
2019-02-10T05:23:19.320Z,24.99
2019-02-10T05:29:14.300Z,26.42
2019-02-10T05:35:09.309Z,30.46
2019-02-10T05:41:04.326Z,35.32
2019-02-10T05:46:59.336Z,35.86
2019-02-10T05:52:54.321Z,40.95
2019-02-10T05:58:49.286Z,41.5
2019-02-10T06:04:44.331Z,43.5
2019-02-10T06:10:39.342Z,41.64
2019-02-10T06:16:34.361Z,39.81
2019-02-10T06:22:29.321Z,39.14
2019-02-10T06:28:24.296Z,37.73
2019-02-10T06:34:19.346Z,35.64
2019-02-10T06:40:14.345Z,35.5
2019-02-10T06:46:09.309Z,32.87
2019-02-10T06:52:04.320Z,30.78
2019-02-10T06:57:59.361Z,27.45
2019-02-10T07:03:54.301Z,27.67
2019-02-10T07:09:49.327Z,27.49
2019-02-10T07:15:44.334Z,25.49
2019-02-10T07:21:39.315Z,25.72
2019-02-10T07:27:34.386Z,25
2019-02-10T07:33:29.320Z,28.16
2019-02-10T07:39:24.312Z,29.37
2019-02-10T07:45:19.328Z,27.85
2019-02-10T07:51:14.334Z,32.48
2019-02-10T07:57:09.319Z,33.79
2019-02-10T08:03:04.349Z,31.63
2019-02-10T08:08:59.314Z,28.69
2019-02-10T08:14:54.356Z,30.74
2019-02-10T08:20:49.334Z,30.52
2019-02-10T08:26:44.382Z,31.7
2019-02-10T08:32:39.337Z,30.31
2019-02-10T08:38:34.461Z,30.04
2019-02-10T08:44:29.350Z,25.26
2019-02-10T08:50:24.322Z,27.66
2019-02-10T08:56:19.324Z,26.49
2019-02-10T09:02:14.345Z,29.75
2019-02-10T09:08:09.369Z,35.11
2019-02-10T09:14:04.330Z,33.15
2019-02-10T09:19:59.315Z,32.8
2019-02-10T09:25:54.374Z,35.24
2019-02-10T09:31:49.351Z,35.3
2019-02-10T09:37:44.407Z,39
2019-02-10T09:43:39.357Z,45.69
2019-02-10T09:49:34.364Z,48.5
2019-02-10T09:55:29.335Z,49.01
2019-02-10T10:01:24.462Z,40.14
2019-02-10T10:07:19.348Z,37.2
2019-02-10T10:13:14.346Z,31.99
2019-02-10T10:19:09.353Z,26.74
2019-02-10T10:25:04.352Z,25.57
2019-02-10T10:30:59.366Z,19.04
2019-02-10T10:36:54.350Z,20.18
2019-02-10T10:42:49.351Z,11.81
2019-02-10T10:48:44.324Z,11.74
2019-02-10T10:54:42.732Z,14.64
2019-02-10T11:00:34.342Z,21.76
2019-02-10T11:06:29.339Z,23.98
2019-02-10T11:12:24.364Z,23.31
2019-02-10T11:18:19.353Z,22.63
2019-02-10T11:24:14.346Z,22.21
2019-02-10T11:30:09.349Z,22.34
2019-02-10T11:36:04.338Z,21.05
2019-02-10T11:41:59.346Z,21.1
2019-02-10T11:47:54.399Z,25.13
2019-02-10T11:53:49.373Z,21.99
2019-02-10T11:59:44.340Z,20.44
2019-02-10T12:05:39.371Z,15.89
2019-02-10T12:11:34.393Z,15.07
2019-02-10T12:17:29.362Z,20.68
2019-02-10T12:23:24.356Z,22.79
2019-02-10T12:29:19.391Z,14.11
2019-02-10T12:35:14.407Z,9.6
2019-02-10T12:41:09.489Z,7.21
2019-02-10T12:47:04.365Z,9.47
2019-02-10T12:52:59.371Z,6.83
2019-02-10T12:58:54.390Z,6.61
2019-02-10T13:04:49.359Z,5.61
2019-02-10T13:10:44.365Z,6.25
2019-02-10T13:16:39.376Z,5.9
2019-02-10T13:22:34.403Z,5.3
2019-02-10T13:28:29.415Z,7.95
2019-02-10T13:34:25.701Z,7.78
2019-02-10T13:40:19.411Z,6.54
2019-02-10T13:46:14.402Z,7.08
2019-02-10T13:52:09.471Z,6.63
2019-02-10T13:58:04.429Z,6.31
2019-02-10T14:03:59.387Z,5.62
2019-02-10T14:09:54.428Z,8.3
2019-02-10T14:15:49.412Z,8.01
2019-02-10T14:21:44.468Z,7.57
2019-02-10T14:27:39.397Z,4.35
2019-02-10T14:33:38.800Z,4.14
2019-02-10T14:39:29.441Z,6.4
2019-02-10T14:45:24.405Z,6.15
2019-02-10T14:51:19.396Z,7.01
2019-02-10T14:57:14.428Z,6.57
2019-02-10T15:03:09.434Z,6.22
2019-02-10T15:09:04.477Z,6.31
2019-02-10T15:14:59.461Z,5.16
2019-02-10T15:20:54.445Z,4.87
2019-02-10T15:26:49.414Z,5.36
2019-02-10T15:32:44.423Z,6.46
2019-02-10T15:38:39.426Z,8.52
2019-02-10T15:44:34.496Z,5.84
2019-02-10T15:50:29.453Z,5.99
2019-02-10T15:56:24.430Z,6.23
2019-02-10T16:02:19.437Z,6.48
2019-02-10T16:08:14.467Z,8.24
2019-02-10T16:14:09.437Z,7.23
2019-02-10T16:20:04.443Z,7.79
2019-02-10T16:25:59.430Z,8.83
2019-02-10T16:31:54.478Z,10.29
2019-02-10T16:37:49.481Z,9.17
2019-02-10T16:43:44.461Z,8.77
2019-02-10T16:49:39.455Z,7.63
2019-02-10T16:55:34.455Z,7.07
2019-02-10T17:01:29.457Z,7.15
2019-02-10T17:07:24.565Z,5.96
2019-02-10T17:13:19.450Z,6.69
2019-02-10T17:19:14.451Z,5.09
2019-02-10T17:25:09.470Z,7.22
2019-02-10T17:31:04.529Z,6.91
2019-02-10T17:36:59.455Z,5.14
2019-02-10T17:42:54.459Z,8.7
2019-02-10T17:48:49.479Z,6.44
2019-02-10T17:54:44.452Z,5.02
2019-02-10T18:00:39.468Z,5.21
2019-02-10T18:06:34.497Z,5.7
2019-02-10T18:12:29.456Z,5
2019-02-10T18:18:24.478Z,5.54
2019-02-10T18:24:19.491Z,6.78
2019-02-10T18:30:14.474Z,7.65
2019-02-10T18:36:09.878Z,4.87
2019-02-10T18:42:04.489Z,6.73
2019-02-10T18:47:59.510Z,6.13
2019-02-10T18:53:54.499Z,6.05
2019-02-10T18:59:49.511Z,5.8
2019-02-10T19:05:44.517Z,5.7
2019-02-10T19:11:46.230Z,6.5
2019-02-10T19:17:34.527Z,6.76
2019-02-10T19:23:29.500Z,6.91
2019-02-10T19:29:25.564Z,7.56
2019-02-10T19:35:19.491Z,6.26
2019-02-10T19:41:14.495Z,5.5
2019-02-10T19:47:09.497Z,7.93
2019-02-10T19:53:04.508Z,7.37
2019-02-10T19:58:59.514Z,7.09
2019-02-10T20:04:54.535Z,8.02
2019-02-10T20:10:49.519Z,6.77
2019-02-10T20:16:44.501Z,7.36
2019-02-10T20:22:39.572Z,6.76
2019-02-10T20:28:34.572Z,8.29
2019-02-10T20:34:29.512Z,6.98
2019-02-10T20:40:24.550Z,7.57
2019-02-10T20:46:19.493Z,6.59
2019-02-10T20:52:14.500Z,6.21
2019-02-10T20:58:09.526Z,7.46
2019-02-10T21:04:04.582Z,5.92
2019-02-10T21:09:59.517Z,5.87
2019-02-10T21:15:54.509Z,6.14
2019-02-10T21:21:49.534Z,5.95
2019-02-10T21:27:44.553Z,5.84
2019-02-10T21:33:39.515Z,5.83
2019-02-10T21:39:34.527Z,5.38
2019-02-10T21:45:29.569Z,6.29
2019-02-10T21:51:24.530Z,5.25
2019-02-10T21:57:19.525Z,5.2
2019-02-10T22:03:14.552Z,4.42
2019-02-10T22:09:09.525Z,5.02
2019-02-10T22:15:04.553Z,4.79
2019-02-10T22:20:59.565Z,5.18
2019-02-10T22:26:54.545Z,4.17
2019-02-10T22:32:49.531Z,4.93
2019-02-10T22:38:44.579Z,5.96
2019-02-10T22:44:39.535Z,5.08
2019-02-10T22:50:34.594Z,5.32
2019-02-10T22:56:29.577Z,5.14
2019-02-10T23:02:24.546Z,7.12
2019-02-10T23:08:19.594Z,6.93
2019-02-10T23:14:14.571Z,7.79
2019-02-10T23:20:09.600Z,7.14
2019-02-10T23:26:04.545Z,6.6
2019-02-10T23:31:59.565Z,8.27
2019-02-10T23:37:54.555Z,5.65
2019-02-10T23:43:49.544Z,7.47
2019-02-10T23:49:44.613Z,5.89
2019-02-10T23:55:39.552Z,5.18
